FW4298 Weather Reports


Display with metric or nautical units.
time (UTC)temp
F
wind
direction
speed
MPH
gust
MPH
rain 1hr
in
rain 24hr
in
rain mn
in
humidity
%
barometer
mb
20220927211842 89 69 7.0 13.0 0.00 0.00 0.00 26 1020.7
20220927211342 88 83 7.0 15.0 0.00 0.00 0.00 26 1020.5
20220927211126 89 101 6.0 15.0 0.00 0.00 0.00 26 1020.5
20220927210351 88 96 8.0 16.0 0.00 0.00 0.00 25 1020.5
20220927210109 88 133 7.0 16.0 0.00 0.00 0.00 25 1020.4
20220927205338 88 48 6.0 12.0 0.00 0.00 0.00 27 1020.5
20220927204839 89 55 6.0 12.0 0.00 0.00 0.00 26 1020.5
20220927204109 88 95 6.0 13.0 0.00 0.00 0.00 26 1020.7
20220927203609 88 94 5.0 12.0 0.00 0.00 0.00 27 1020.7
20220927203443 89 82 5.0 12.0 0.00 0.00 0.00 26 1020.8
20220927202355 89 57 5.0 10.0 0.00 0.00 0.00 27 1020.8
20220927202052 88 84 5.0 11.0 0.00 0.00 0.00 27 1020.9
20220927201320 88 53 6.0 12.0 0.00 0.00 0.00 26 1021.1
20220927200818 89 54 6.0 12.0 0.00 0.00 0.00 25 1021.1
20220927200612 89 79 5.0 14.0 0.00 0.00 0.00 26 1021.2
20220927195823 88 79 7.0 14.0 0.00 0.00 0.00 26 1021.2
20220927195545 87 113 8.0 14.0 0.00 0.00 0.00 26 1021.3
20220927194818 88 153 6.0 15.0 0.00 0.00 0.00 25 1021.5
20220927194814 87 121 7.0 15.0 0.00 0.00 0.00 26 1021.3
20220927193809 88 318 6.0 14.0 0.00 0.00 0.00 25 1021.6
20220927193306 89 95 5.0 14.0 0.00 0.00 0.00 24 1021.6
20220927192805 88 43 6.0 14.0 0.00 0.00 0.00 25 1021.7
20220927192314 88 32 6.0 14.0 0.00 0.00 0.00 26 1021.8
20220927192021 88 71 5.0 10.0 0.00 0.00 0.00 26 1021.9
20220927191519 87 123 5.0 11.0 0.00 0.00 0.00 25 1021.9
20220927191020 87 53 7.0 14.0 0.00 0.00 0.00 25 1022.0
20220927190342 88 19 5.0 12.0 0.00 0.00 0.00 26 1022.0
20220927185242 89 37 4.0 11.0 0.00 0.00 0.00 26 1022.1
20220927184740 88 355 4.0 11.0 0.00 0.00 0.00 26 1022.2
20220927184509 87 94 4.0 11.0 0.00 0.00 0.00 26 1022.3
20220927183740 87 138 3.0 8.0 0.00 0.00 0.00 26 1022.5
20220927183736 87 186 3.0 7.0 0.00 0.00 0.00 26 1022.3
20220927182735 87 5 3.0 10.0 0.00 0.00 0.00 27 1022.6
20220927182505 87 103 4.0 10.0 0.00 0.00 0.00 27 1022.6
20220927181732 87 138 4.0 10.0 0.00 0.00 0.00 26 1022.6
20220927181243 87 28 3.0 10.0 0.00 0.00 0.00 27 1022.9
20220927181239 87 19 3.0 10.0 0.00 0.00 0.00 25 1022.7
20220927180210 87 12 3.0 9.0 0.00 0.00 0.00 27 1022.9
20220927175220 87 271 4.0 10.0 0.00 0.00 0.00 27 1023.0
20220927174936 86 15 3.0 10.0 0.00 0.00 0.00 28 1023.0
20220927174215 85 323 3.0 8.0 0.00 0.00 0.00 29 1023.1
20220927174211 86 342 2.0 7.0 0.00 0.00 0.00 27 1023.1
20220927173202 85 58 5.0 11.0 0.00 0.00 0.00 27 1023.3
20220927172706 86 98 3.0 10.0 0.00 0.00 0.00 29 1023.3
20220927172702 85 125 5.0 11.0 0.00 0.00 0.00 28 1023.3
20220927171701 84 43 3.0 6.0 0.00 0.00 0.00 30 1023.3
20220927171156 83 12 3.0 7.0 0.00 0.00 0.00 32 1023.4
20220927170932 83 296 3.0 7.0 0.00 0.00 0.00 33 1023.5
20220927170806 83 304 4.0 8.0 0.00 0.00 0.00 35 1023.6
20220927165652 84 330 3.0 8.0 0.00 0.00 0.00 32 1023.6
20220927165127 84 331 2.0 8.0 0.00 0.00 0.00 34 1023.7
20220927164559 84 104 2.0 6.0 0.00 0.00 0.00 32 1023.8
20220927164304 84 311 3.0 9.0 0.00 0.00 0.00 32 1023.8
20220927163735 84 336 2.0 7.0 0.00 0.00 0.00 34 1023.7
20220927163214 84 321 1.0 5.0 0.00 0.00 0.00 32 1023.7
20220927162652 84 85 3.0 8.0 0.00 0.00 0.00 33 1023.8
20220927161900 83 29 3.0 8.0 0.00 0.00 0.00 34 1024.0
20220927161359 83 9 2.0 6.0 0.00 0.00 0.00 35 1024.1
20220927160834 83 22 3.0 7.0 0.00 0.00 0.00 35 1024.0
20220927160341 82 5 3.0 7.0 0.00 0.00 0.00 35 1024.0
20220927160013 82 36 3.0 5.0 0.00 0.00 0.00 36 1024.0
20220927155455 81 10 3.0 7.0 0.00 0.00 0.00 34 1024.0
20220927154918 81 31 3.0 7.0 0.00 0.00 0.00 33 1023.8
20220927154623 80 9 3.0 5.0 0.00 0.00 0.00 35 1023.9
20220927153605 80 355 3.0 5.0 0.00 0.00 0.00 38 1023.9
20220927153105 79 355 2.0 5.0 0.00 0.00 0.00 38 1023.8
20220927153042 78 329 3.0 5.0 0.00 0.00 0.00 41 1023.9
20220927152521 78 12 2.0 5.0 0.00 0.00 0.00 42 1023.8
20220927151520 77 355 2.0 4.0 0.00 0.00 0.00 44 1023.9
20220927151031 76 333 2.0 5.0 0.00 0.00 0.00 44 1023.8
20220927151018 77 301 2.0 5.0 0.00 0.00 0.00 43 1023.8
20220927150014 75 355 2.0 5.0 0.00 0.00 0.00 45 1023.7
20220927145747 75 344 2.0 5.0 0.00 0.00 0.00 45 1023.7
20220927145621 74 22 3.0 4.0 0.00 0.00 0.00 45 1023.8
20220927145116 73 350 2.0 4.0 0.00 0.00 0.00 47 1023.7
20220927144238 73 5 2.0 4.0 0.00 0.00 0.00 46 1023.7
20220927143507 72 346 2.0 4.0 0.00 0.00 0.00 48 1023.6
20220927143008 72 350 2.0 4.0 0.00 0.00 0.00 49 1023.6
20220927142738 71 355 2.0 4.0 0.00 0.00 0.00 49 1023.4
20220927142236 71 330 2.0 5.0 0.00 0.00 0.00 49 1023.4
20220927141507 70 355 2.0 5.0 0.00 0.00 0.00 50 1023.4
20220927141016 69 344 2.0 3.0 0.00 0.00 0.00 51 1023.3
20220927141012 69 335 2.0 5.0 0.00 0.00 0.00 50 1023.4
20220927140008 68 324 2.0 5.0 0.00 0.00 0.00 54 1023.3
20220927135508 66 319 3.0 5.0 0.00 0.00 0.00 54 1023.0
20220927135504 67 319 3.0 5.0 0.00 0.00 0.00 54 1023.0
20220927134505 65 302 2.0 5.0 0.00 0.00 0.00 56 1023.0
20220927134014 64 294 2.0 4.0 0.00 0.00 0.00 56 1023.0
20220927133732 63 302 1.0 3.0 0.00 0.00 0.00 59 1023.0
20220927133001 62 302 1.0 3.0 0.00 0.00 0.00 61 1023.0
20220927132737 61 311 0.0 2.0 0.00 0.00 0.00 63 1022.9
20220927132000 60 311 0.0 2.0 0.00 0.00 0.00 67 1022.9
20220927131732 59 311 0.0 2.0 0.00 0.00 0.00 69 1022.8
20220927131011 58 311 0.0 2.0 0.00 0.00 0.00 66 1022.7
20220927130509 57 312 0.0 1.0 0.00 0.00 0.00 69 1022.6
20220927125958 57 312 0.0 0.0 0.00 0.00 0.00 71 1022.6
20220927125455 56 312 0.0 0.0 0.00 0.00 0.00 74 1022.6
20220927124955 55 312 0.0 0.0 0.00 0.00 0.00 73 1022.5
20220927124455 54 312 0.0 0.0 0.00 0.00 0.00 73 1022.5
20220927124229 54 312 0.0 0.0 0.00 0.00 0.00 74 1022.5
20220927124117 54 312 0.0 1.0 0.00 0.00 0.00 73 1022.5
20220927122952 54 312 0.0 1.0 0.00 0.00 0.00 72 1022.4
20220927122453 54 312 0.0 0.0 0.00 0.00 0.00 72 1022.4
20220927121947 54 312 0.0 0.0 0.00 0.00 0.00 72 1022.4
20220927121439 54 312 0.0 1.0 0.00 0.00 0.00 72 1022.4
20220927120937 54 312 0.0 1.0 0.00 0.00 0.00 73 1022.3
20220927120444 54 312 0.0 1.0 0.00 0.00 0.00 73 1022.3
20220927120211 54 312 0.0 1.0 0.00 0.00 0.00 74 1022.2
20220927115431 54 312 0.0 2.0 0.00 0.00 0.00 74 1022.2
20220927115202 54 312 0.0 2.0 0.00 0.00 0.00 73 1022.3
20220927114429 54 311 0.0 1.0 0.00 0.00 0.00 73 1022.2
20220927113929 54 312 0.0 0.0 0.00 0.00 0.00 73 1022.2
20220927113427 54 312 0.0 0.0 0.00 0.00 0.00 75 1022.0
20220927113204 54 312 0.0 0.0 0.00 0.00 0.00 76 1022.0
20220927112148 55 312 0.0 0.0 0.00 0.00 0.00 72 1021.9
20220927111417 55 312 0.0 0.0 0.00 0.00 0.00 74 1021.8
20220927110915 55 311 0.0 0.0 0.00 0.00 0.00 71 1021.7
20220927110700 55 312 0.0 2.0 0.00 0.00 0.00 71 1021.7
20220927110133 55 312 0.0 2.0 0.00 0.00 0.00 71 1021.7
20220927105418 55 312 0.0 2.0 0.00 0.00 0.00 70 1021.6
20220927105126 55 312 1.0 2.0 0.00 0.00 0.00 69 1021.7
20220927105000 55 312 1.0 2.0 0.00 0.00 0.00 71 1021.6
20220927103835 55 311 0.0 2.0 0.00 0.00 0.00 71 1021.6
20220927103333 55 310 0.0 0.0 0.00 0.00 0.00 70 1021.5
20220927103103 56 310 0.0 0.0 0.00 0.00 0.00 71 1021.4
20220927102621 56 310 0.0 0.0 0.00 0.00 0.00 69 1021.4
20220927101827 56 310 0.0 0.0 0.00 0.00 0.00 69 1021.5
20220927101335 56 310 0.0 0.0 0.00 0.00 0.00 71 1021.5
20220927100822 56 310 0.0 0.0 0.00 0.00 0.00 70 1021.4
20220927100613 57 310 0.0 0.0 0.00 0.00 0.00 69 1021.4
20220927100045 57 310 0.0 0.0 0.00 0.00 0.00 69 1021.3
20220927095313 57 310 0.0 0.0 0.00 0.00 0.00 67 1021.4
20220927094811 58 310 0.0 0.0 0.00 0.00 0.00 66 1021.4
20220927094354 58 310 0.0 1.0 0.00 0.00 0.00 65 1021.2
20220927093300 57 310 1.0 3.0 0.00 0.00 0.00 64 1021.2
20220927093256 58 310 1.0 2.0 0.00 0.00 0.00 64 1021.2
20220927092241 57 315 0.0 3.0 0.00 0.00 0.00 66 1021.3
20220927091741 57 13 0.0 1.0 0.00 0.00 0.00 66 1021.3
20220927091511 57 13 0.0 1.0 0.00 0.00 0.00 68 1021.2
20220927090738 57 13 0.0 1.0 0.00 0.00 0.00 67 1021.2
20220927090506 57 13 0.0 1.0 0.00 0.00 0.00 67 1021.1
20220927090340 57 13 0.0 0.0 0.00 0.00 0.00 67 1021.1
20220927085502 57 13 0.0 0.0 0.00 0.00 0.00 66 1021.1
20220927084955 57 13 0.0 0.0 0.00 0.00 0.00 66 1021.0
20220927084455 58 13 0.0 0.0 0.00 0.00 0.00 66 1021.0
20220927083733 58 13 0.0 0.0 0.00 0.00 0.00 66 1021.1
20220927083453 58 13 0.0 0.0 0.00 0.00 0.00 66 1021.2
20220927082653 58 13 0.0 0.0 0.00 0.00 0.00 65 1021.2
20220927082127 58 13 0.0 0.0 0.00 0.00 0.00 63 1021.3
20220927081833 58 13 0.0 0.0 0.00 0.00 0.00 64 1021.2
20220927081036 58 13 0.0 0.0 0.00 0.00 0.00 62 1021.3
20220927080508 58 13 0.0 0.0 0.00 0.00 0.00 63 1021.3
20220927075942 58 13 0.0 0.0 0.00 0.00 0.00 64 1021.4
20220927074322 58 13 0.0 0.0 0.00 0.00 0.00 65 1021.6
20220927073755 58 13 0.0 0.0 0.00 0.00 0.00 65 1021.5
20220927073501 58 13 0.0 0.0 0.00 0.00 0.00 65 1021.4
20220927072703 59 13 0.0 0.0 0.00 0.00 0.00 64 1021.4
20220927072139 59 13 0.0 0.0 0.00 0.00 0.00 63 1021.4
20220927071640 59 13 0.0 0.0 0.00 0.00 0.00 64 1021.4
20220927071138 59 13 0.0 0.0 0.00 0.00 0.00 64 1021.4
20220927070600 59 13 0.0 1.0 0.00 0.00 0.00 62 1021.4
20220927070037 60 13 0.0 2.0 0.00 0.00 0.00 61 1021.3
20220927065542 60 13 1.0 3.0 0.00 0.00 0.00 62 1021.4
20220927065000 59 19 0.0 2.0 0.00 0.00 0.00 62 1021.4
20220927064434 60 22 0.0 0.0 0.00 0.00 0.00 65 1021.5
20220927064414 60 22 0.0 0.0 0.00 0.00 0.00 61 1021.5
20220927063847 60 22 0.0 0.0 0.00 0.00 0.00 62 1021.7
20220927062822 60 22 0.0 0.0 0.00 0.00 0.00 61 1021.6
20220927062756 60 22 0.0 0.0 0.00 0.00 0.00 61 1021.5
20220927061957 60 22 0.0 0.0 0.00 0.00 0.00 61 1021.7
20220927061507 60 22 0.0 0.0 0.00 0.00 0.00 61 1021.7
20220927061207 61 22 0.0 0.0 0.00 0.00 0.00 60 1021.8
20220927060633 61 22 0.0 0.0 0.00 0.00 0.00 59 1021.8
20220927055857 61 22 0.0 0.0 0.00 0.00 0.00 59 1021.9
20220927055121 61 22 0.0 0.0 0.00 0.00 0.00 58 1021.8
20220927054618 62 22 0.0 0.0 0.00 0.00 0.00 59 1021.8
20220927054118 62 22 0.0 0.0 0.00 0.00 0.00 58 1021.9
20220927053618 62 22 0.0 0.0 0.00 0.00 0.00 57 1021.8
20220927053113 62 22 0.0 0.0 0.00 0.00 0.00 57 1021.8
20220927052612 63 22 0.0 0.0 0.00 0.00 0.00 57 1021.9
20220927052346 63 22 0.0 0.0 0.00 0.00 0.00 56 1021.8
20220927051846 63 22 0.0 0.0 0.00 0.00 0.00 55 1021.8
20220927051114 64 22 0.0 0.0 0.00 0.00 0.00 54 1021.8
20220927050609 64 22 0.0 0.0 0.00 0.00 0.00 54 1021.8
20220927050115 65 22 0.0 0.0 0.00 0.00 0.00 53 1021.8
20220927045604 65 22 0.0 0.0 0.00 0.00 0.00 51 1021.7
20220927045115 65 22 0.0 0.0 0.00 0.00 0.00 50 1021.7
20220927044604 66 22 0.0 0.0 0.00 0.00 0.00 49 1021.7
20220927044334 66 22 0.0 1.0 0.00 0.00 0.00 49 1021.7
20220927043603 67 22 0.0 1.0 0.00 0.00 0.00 48 1021.7
20220927043559 66 22 0.0 1.0 0.00 0.00 0.00 48 1021.7
20220927043047 67 22 0.0 0.0 0.00 0.00 0.00 48 1021.7
20220927042317 67 22 0.0 1.0 0.00 0.00 0.00 47 1021.7
20220927041804 68 22 0.0 3.0 0.00 0.00 0.00 47 1021.6
20220927041032 68 22 0.0 3.0 0.00 0.00 0.00 46 1021.5
20220927040802 68 24 0.0 2.0 0.00 0.00 0.00 47 1021.5
20220927040635 69 24 0.0 2.0 0.00 0.00 0.00 46 1021.6
20220927035538 69 24 0.0 2.0 0.00 0.00 0.00 45 1021.6
20220927035019 69 24 0.0 3.0 0.00 0.00 0.00 44 1021.6
20220927034517 69 24 0.0 3.0 0.00 0.00 0.00 45 1021.6
20220927034015 70 45 0.0 2.0 0.00 0.00 0.00 44 1021.7
20220927033743 70 44 0.0 2.0 0.00 0.00 0.00 43 1021.6
20220927033617 71 44 0.0 2.0 0.00 0.00 0.00 43 1021.6
20220927032513 71 45 0.0 3.0 0.00 0.00 0.00 42 1021.5
20220927032248 71 45 0.0 3.0 0.00 0.00 0.00 42 1021.4
20220927031458 71 45 1.0 3.0 0.00 0.00 0.00 42 1021.4
20220927030452 72 34 1.0 3.0 0.00 0.00 0.00 41 1021.2
20220927025448 73 20 2.0 3.0 0.00 0.00 0.00 40 1021.1
20220927024946 73 26 1.0 3.0 0.00 0.00 0.00 40 1021.0
20220927024445 73 30 1.0 3.0 0.00 0.00 0.00 40 1021.1
20220927023956 73 30 1.0 3.0 0.00 0.00 0.00 40 1021.0
20220927023439 74 22 2.0 4.0 0.00 0.00 0.00 39 1021.0
20220927022937 74 24 2.0 4.0 0.00 0.00 0.00 39 1021.1
20220927022450 74 20 2.0 5.0 0.00 0.00 0.00 39 1020.9
20220927022205 75 83 2.0 5.0 0.00 0.00 0.00 39 1020.9
20220927021431 75 28 2.0 4.0 0.00 0.00 0.00 39 1020.8
20220927021215 75 5 2.0 4.0 0.00 0.00 0.00 38 1020.7
20220927021009 76 22 2.0 5.0 0.00 0.00 0.00 38 1020.7
20220927020206 76 26 2.0 7.0 0.00 0.00 0.00 37 1020.6
20220927015427 76 36 2.0 7.0 0.00 0.00 0.00 37 1020.5
20220927015021 76 5 3.0 6.0 0.00 0.00 0.00 37 1020.5
20220927013913 77 22 3.0 5.0 0.00 0.00 0.00 36 1020.4
20220927013341 78 32 3.0 8.0 0.00 0.00 0.00 35 1020.4
20220927013314 78 22 3.0 9.0 0.00 0.00 0.00 35 1020.2
20220927012305 78 35 3.0 9.0 0.00 0.00 0.00 35 1020.2
20220927011719 79 30 4.0 9.0 0.00 0.00 0.00 34 1020.1
20220927011151 79 27 4.0 9.0 0.00 0.00 0.00 34 1019.9
20220927010901 80 34 4.0 10.0 0.00 0.00 0.00 34 1019.9
20220927010129 80 28 4.0 10.0 0.00 0.00 0.00 33 1019.7
20220927005627 80 28 4.0 8.0 0.00 0.00 0.00 33 1019.7
20220927005130 81 21 4.0 11.0 0.00 0.00 0.00 33 1019.5
20220927005126 80 11 4.0 9.0 0.00 0.00 0.00 34 1019.5
20220927004121 81 5 4.0 11.0 0.00 0.00 0.00 34 1019.4
20220927003618 82 40 4.0 11.0 0.00 0.00 0.00 34 1019.3
20220927003119 82 17 5.0 15.0 0.00 0.00 0.00 33 1019.4
20220927002619 82 49 5.0 15.0 0.00 0.00 0.00 33 1019.3
20220927002121 83 63 6.0 13.0 0.00 0.00 0.00 33 1019.2
20220927001619 84 23 5.0 12.0 0.00 0.00 0.00 30 1019.1
20220927001615 84 16 6.0 13.0 0.00 0.00 0.00 31 1019.2
20220927000556 86 40 6.0 13.0 0.00 0.00 0.00 29 1018.9
20220927000043 87 355 5.0 13.0 0.00 0.00 0.00 29 1018.7
20220926235006 87 20 5.0 11.0 0.00 0.00 0.00 29 1018.6
20220926234440 87 39 5.0 14.0 0.00 0.00 0.00 29 1018.6
20220926233957 88 35 4.0 10.0 0.00 0.00 0.00 28 1018.5
20220926232819 89 9 4.0 12.0 0.00 0.00 0.00 28 1018.3
20220926232531 89 85 4.0 12.0 0.00 0.00 0.00 28 1018.3
20220926231725 89 28 6.0 12.0 0.00 0.00 0.00 28 1018.3
20220926231202 89 20 6.0 13.0 0.00 0.00 0.00 28 1018.3
20220926230705 89 24 5.0 13.0 0.00 0.00 0.00 27 1018.3
20220926230201 90 341 5.0 11.0 0.00 0.00 0.00 27 1018.3
20220926225927 90 9 6.0 10.0 0.00 0.00 0.00 27 1018.2
20220926225215 90 5 6.0 14.0 0.00 0.00 0.00 27 1018.2
20220926224922 90 24 5.0 14.0 0.00 0.00 0.00 27 1018.1
20220926224151 90 32 6.0 14.0 0.00 0.00 0.00 27 1018.2
20220926223922 90 18 7.0 14.0 0.00 0.00 0.00 27 1018.2
20220926223151 90 350 7.0 14.0 0.00 0.00 0.00 27 1018.2
20220926222913 90 5 7.0 14.0 0.00 0.00 0.00 27 1018.2
20220926222413 90 17 7.0 14.0 0.00 0.00 0.00 27 1018.3
20220926221641 91 355 6.0 12.0 0.00 0.00 0.00 27 1018.3
20220926221142 91 5 6.0 14.0 0.00 0.00 0.00 27 1018.3
20220926221138 91 350 6.0 14.0 0.00 0.00 0.00 27 1018.4
20220926220138 91 5 6.0 14.0 0.00 0.00 0.00 28 1018.3
20220926215632 91 5 7.0 14.0 0.00 0.00 0.00 28 1018.4
20220926215130 91 355 7.0 14.0 0.00 0.00 0.00 27 1018.3
20220926214629 91 24 5.0 13.0 0.00 0.00 0.00 27 1018.4
20220926213626 91 32 6.0 17.0 0.00 0.00 0.00 27 1018.4
20220926213126 91 346 7.0 17.0 0.00 0.00 0.00 28 1018.5
20220926212626 90 0 7.0 13.0 0.00 0.00 0.00 29 1018.5